sensor_id;sensor_type;location;lat;lon;timestamp;temperature;humidity
68257;DHT22;55069;51.568;4.656;2023-02-22T00:00:20;6.12;90.44
68257;DHT22;55069;51.568;4.656;2023-02-22T00:03:05;6.06;89.93
68257;DHT22;55069;51.568;4.656;2023-02-22T00:05:32;6.01;89.86
68257;DHT22;55069;51.568;4.656;2023-02-22T00:07:58;6.02;90.15
68257;DHT22;55069;51.568;4.656;2023-02-22T00:10:25;6.01;90.05
68257;DHT22;55069;51.568;4.656;2023-02-22T00:12:52;5.91;90.01
68257;DHT22;55069;51.568;4.656;2023-02-22T00:15:21;5.91;90.15
68257;DHT22;55069;51.568;4.656;2023-02-22T00:17:47;5.97;90.72
68257;DHT22;55069;51.568;4.656;2023-02-22T00:20:14;5.94;90.97
68257;DHT22;55069;51.568;4.656;2023-02-22T00:22:46;5.98;91.01
68257;DHT22;55069;51.568;4.656;2023-02-22T00:25:18;5.91;90.87
68257;DHT22;55069;51.568;4.656;2023-02-22T00:27:44;5.88;90.73
68257;DHT22;55069;51.568;4.656;2023-02-22T00:30:17;5.88;90.80
68257;DHT22;55069;51.568;4.656;2023-02-22T00:32:47;5.94;91.22
68257;DHT22;55069;51.568;4.656;2023-02-22T00:35:15;5.92;90.88
68257;DHT22;55069;51.568;4.656;2023-02-22T00:37:41;5.84;91.00
68257;DHT22;55069;51.568;4.656;2023-02-22T00:40:13;5.84;91.03
68257;DHT22;55069;51.568;4.656;2023-02-22T00:42:39;5.78;91.19
68257;DHT22;55069;51.568;4.656;2023-02-22T00:45:05;5.74;91.23
68257;DHT22;55069;51.568;4.656;2023-02-22T00:47:33;5.84;91.41
68257;DHT22;55069;51.568;4.656;2023-02-22T00:49:59;5.77;91.40
68257;DHT22;55069;51.568;4.656;2023-02-22T00:52:26;5.82;91.45
68257;DHT22;55069;51.568;4.656;2023-02-22T00:54:52;5.85;91.74
68257;DHT22;55069;51.568;4.656;2023-02-22T00:57:19;5.82;91.74
68257;DHT22;55069;51.568;4.656;2023-02-22T00:59:44;5.81;91.83
68257;DHT22;55069;51.568;4.656;2023-02-22T01:02:10;5.82;91.86
68257;DHT22;55069;51.568;4.656;2023-02-22T01:04:36;5.88;91.85
68257;DHT22;55069;51.568;4.656;2023-02-22T01:07:02;5.87;92.13
68257;DHT22;55069;51.568;4.656;2023-02-22T01:09:29;5.87;92.21
68257;DHT22;55069;51.568;4.656;2023-02-22T01:11:55;5.90;92.17
68257;DHT22;55069;51.568;4.656;2023-02-22T01:14:23;5.85;92.03
68257;DHT22;55069;51.568;4.656;2023-02-22T01:16:51;5.79;92.03
68257;DHT22;55069;51.568;4.656;2023-02-22T01:19:19;5.81;92.25
68257;DHT22;55069;51.568;4.656;2023-02-22T01:21:45;5.78;92.45
68257;DHT22;55069;51.568;4.656;2023-02-22T01:24:12;5.82;92.45
68257;DHT22;55069;51.568;4.656;2023-02-22T01:26:48;5.82;92.45
68257;DHT22;55069;51.568;4.656;2023-02-22T01:29:15;5.82;92.48
68257;DHT22;55069;51.568;4.656;2023-02-22T01:31:42;5.85;92.45
68257;DHT22;55069;51.568;4.656;2023-02-22T01:34:09;5.85;92.46
68257;DHT22;55069;51.568;4.656;2023-02-22T01:36:35;5.81;92.53
68257;DHT22;55069;51.568;4.656;2023-02-22T01:39:01;5.84;92.67
68257;DHT22;55069;51.568;4.656;2023-02-22T01:41:26;5.81;92.60
68257;DHT22;55069;51.568;4.656;2023-02-22T01:43:52;5.79;92.76
68257;DHT22;55069;51.568;4.656;2023-02-22T01:46:24;5.71;92.77
68257;DHT22;55069;51.568;4.656;2023-02-22T01:49:02;5.78;93.01
68257;DHT22;55069;51.568;4.656;2023-02-22T01:51:36;5.81;93.08
68257;DHT22;55069;51.568;4.656;2023-02-22T01:54:10;5.78;92.99
68257;DHT22;55069;51.568;4.656;2023-02-22T01:56:44;5.77;92.99
68257;DHT22;55069;51.568;4.656;2023-02-22T01:59:11;5.77;93.03
68257;DHT22;55069;51.568;4.656;2023-02-22T02:01:39;5.75;93.05
68257;DHT22;55069;51.568;4.656;2023-02-22T02:04:15;5.73;93.41
68257;DHT22;55069;51.568;4.656;2023-02-22T02:06:42;5.77;93.38
68257;DHT22;55069;51.568;4.656;2023-02-22T02:11:46;5.73;93.34
68257;DHT22;55069;51.568;4.656;2023-02-22T02:14:13;5.65;93.38
68257;DHT22;55069;51.568;4.656;2023-02-22T02:16:48;5.65;93.39
68257;DHT22;55069;51.568;4.656;2023-02-22T02:22:16;5.61;93.60
68257;DHT22;55069;51.568;4.656;2023-02-22T02:33:28;5.74;93.82
68257;DHT22;55069;51.568;4.656;2023-02-22T02:36:28;5.71;93.77
68257;DHT22;55069;51.568;4.656;2023-02-22T02:38:59;5.74;93.80
68257;DHT22;55069;51.568;4.656;2023-02-22T02:41:36;5.74;93.93
68257;DHT22;55069;51.568;4.656;2023-02-22T02:44:11;5.75;93.84
68257;DHT22;55069;51.568;4.656;2023-02-22T02:47:04;5.77;93.82
68257;DHT22;55069;51.568;4.656;2023-02-22T02:49:47;5.77;93.86
68257;DHT22;55069;51.568;4.656;2023-02-22T02:52:17;5.75;93.77
68257;DHT22;55069;51.568;4.656;2023-02-22T02:54:47;5.71;93.55
68257;DHT22;55069;51.568;4.656;2023-02-22T02:57:13;5.60;93.64
68257;DHT22;55069;51.568;4.656;2023-02-22T02:59:39;5.61;93.70
68257;DHT22;55069;51.568;4.656;2023-02-22T03:10:36;5.50;93.62
68257;DHT22;55069;51.568;4.656;2023-02-22T03:24:21;5.60;94.00
68257;DHT22;55069;51.568;4.656;2023-02-22T03:27:00;5.64;94.04
68257;DHT22;55069;51.568;4.656;2023-02-22T03:29:30;5.57;93.92
68257;DHT22;55069;51.568;4.656;2023-02-22T03:32:02;5.51;93.72
68257;DHT22;55069;51.568;4.656;2023-02-22T03:34:36;5.57;93.94
68257;DHT22;55069;51.568;4.656;2023-02-22T03:37:11;5.58;93.87
68257;DHT22;55069;51.568;4.656;2023-02-22T03:39:40;5.55;93.70
68257;DHT22;55069;51.568;4.656;2023-02-22T03:42:14;5.55;93.73
68257;DHT22;55069;51.568;4.656;2023-02-22T03:44:42;5.50;93.70
68257;DHT22;55069;51.568;4.656;2023-02-22T03:47:16;5.50;93.48
68257;DHT22;55069;51.568;4.656;2023-02-22T03:52:18;5.48;93.67
68257;DHT22;55069;51.568;4.656;2023-02-22T03:54:49;5.53;93.75
68257;DHT22;55069;51.568;4.656;2023-02-22T03:57:25;5.43;93.69
68257;DHT22;55069;51.568;4.656;2023-02-22T04:00:01;5.46;93.55
68257;DHT22;55069;51.568;4.656;2023-02-22T04:02:38;5.43;93.40
68257;DHT22;55069;51.568;4.656;2023-02-22T04:05:05;5.37;93.30
68257;DHT22;55069;51.568;4.656;2023-02-22T04:07:31;5.30;93.36
68257;DHT22;55069;51.568;4.656;2023-02-22T04:09:56;5.26;93.42
68257;DHT22;55069;51.568;4.656;2023-02-22T04:12:22;5.20;93.29
68257;DHT22;55069;51.568;4.656;2023-02-22T04:14:58;5.18;93.65
68257;DHT22;55069;51.568;4.656;2023-02-22T04:17:24;5.19;93.79
68257;DHT22;55069;51.568;4.656;2023-02-22T04:19:49;5.23;93.96
68257;DHT22;55069;51.568;4.656;2023-02-22T04:22:16;5.29;94.05
68257;DHT22;55069;51.568;4.656;2023-02-22T04:24:43;5.23;93.96
68257;DHT22;55069;51.568;4.656;2023-02-22T04:27:10;5.27;94.01
68257;DHT22;55069;51.568;4.656;2023-02-22T04:29:36;5.25;93.88
68257;DHT22;55069;51.568;4.656;2023-02-22T04:32:05;5.26;93.86
68257;DHT22;55069;51.568;4.656;2023-02-22T04:34:30;5.20;93.84
68257;DHT22;55069;51.568;4.656;2023-02-22T04:36:56;5.19;93.81
68257;DHT22;55069;51.568;4.656;2023-02-22T04:39:22;5.25;93.85
68257;DHT22;55069;51.568;4.656;2023-02-22T04:41:49;5.32;93.74
68257;DHT22;55069;51.568;4.656;2023-02-22T04:44:15;5.23;93.69
68257;DHT22;55069;51.568;4.656;2023-02-22T04:46:40;5.19;93.76
68257;DHT22;55069;51.568;4.656;2023-02-22T04:49:06;5.20;93.80
68257;DHT22;55069;51.568;4.656;2023-02-22T04:51:34;5.16;93.86
68257;DHT22;55069;51.568;4.656;2023-02-22T04:54:04;5.08;93.93
68257;DHT22;55069;51.568;4.656;2023-02-22T04:56:32;5.12;93.88
68257;DHT22;55069;51.568;4.656;2023-02-22T04:58:58;5.00;93.70
68257;DHT22;55069;51.568;4.656;2023-02-22T05:01:23;4.95;93.58
68257;DHT22;55069;51.568;4.656;2023-02-22T05:03:49;4.95;93.59
68257;DHT22;55069;51.568;4.656;2023-02-22T05:06:16;4.89;93.64
68257;DHT22;55069;51.568;4.656;2023-02-22T05:08:42;4.91;93.83
68257;DHT22;55069;51.568;4.656;2023-02-22T05:11:08;4.89;94.00
68257;DHT22;55069;51.568;4.656;2023-02-22T05:13:34;4.86;93.96
68257;DHT22;55069;51.568;4.656;2023-02-22T05:15:59;4.84;94.10
68257;DHT22;55069;51.568;4.656;2023-02-22T05:18:25;4.89;93.89
68257;DHT22;55069;51.568;4.656;2023-02-22T05:20:51;4.79;93.71
68257;DHT22;55069;51.568;4.656;2023-02-22T05:23:17;4.81;93.83
68257;DHT22;55069;51.568;4.656;2023-02-22T05:25:42;4.88;94.13
68257;DHT22;55069;51.568;4.656;2023-02-22T05:28:12;4.88;94.28
68257;DHT22;55069;51.568;4.656;2023-02-22T05:30:38;4.86;94.10
68257;DHT22;55069;51.568;4.656;2023-02-22T05:33:04;4.91;94.11
68257;DHT22;55069;51.568;4.656;2023-02-22T05:35:30;4.93;94.11
68257;DHT22;55069;51.568;4.656;2023-02-22T05:37:56;4.93;94.18
68257;DHT22;55069;51.568;4.656;2023-02-22T05:40:24;4.89;94.04
68257;DHT22;55069;51.568;4.656;2023-02-22T05:42:51;4.95;94.08
68257;DHT22;55069;51.568;4.656;2023-02-22T05:45:19;4.91;94.14
68257;DHT22;55069;51.568;4.656;2023-02-22T05:47:45;4.92;94.11
68257;DHT22;55069;51.568;4.656;2023-02-22T05:50:12;4.95;94.18
68257;DHT22;55069;51.568;4.656;2023-02-22T05:52:38;4.96;94.09
68257;DHT22;55069;51.568;4.656;2023-02-22T05:55:08;4.98;94.18
68257;DHT22;55069;51.568;4.656;2023-02-22T05:57:34;5.00;94.22
68257;DHT22;55069;51.568;4.656;2023-02-22T06:00:00;5.00;94.22
68257;DHT22;55069;51.568;4.656;2023-02-22T06:02:26;4.95;94.09
68257;DHT22;55069;51.568;4.656;2023-02-22T06:04:52;4.96;94.06
68257;DHT22;55069;51.568;4.656;2023-02-22T06:07:17;5.00;94.06
68257;DHT22;55069;51.568;4.656;2023-02-22T06:09:43;4.99;94.04
68257;DHT22;55069;51.568;4.656;2023-02-22T06:12:09;4.96;94.03
68257;DHT22;55069;51.568;4.656;2023-02-22T06:14:35;4.93;93.84
68257;DHT22;55069;51.568;4.656;2023-02-22T06:17:00;4.91;93.87
68257;DHT22;55069;51.568;4.656;2023-02-22T06:19:26;4.95;93.91
68257;DHT22;55069;51.568;4.656;2023-02-22T06:21:54;4.92;93.98
68257;DHT22;55069;51.568;4.656;2023-02-22T06:24:21;4.92;93.91
68257;DHT22;55069;51.568;4.656;2023-02-22T06:26:56;4.96;94.03
68257;DHT22;55069;51.568;4.656;2023-02-22T06:29:23;4.92;93.97
68257;DHT22;55069;51.568;4.656;2023-02-22T06:31:49;4.96;94.05
68257;DHT22;55069;51.568;4.656;2023-02-22T06:34:14;5.00;94.03
68257;DHT22;55069;51.568;4.656;2023-02-22T06:36:40;5.02;93.93
68257;DHT22;55069;51.568;4.656;2023-02-22T06:39:07;4.99;93.82
68257;DHT22;55069;51.568;4.656;2023-02-22T06:41:38;4.89;93.68
68257;DHT22;55069;51.568;4.656;2023-02-22T06:44:04;4.95;93.83
68257;DHT22;55069;51.568;4.656;2023-02-22T06:46:30;4.92;93.83
68257;DHT22;55069;51.568;4.656;2023-02-22T06:48:56;4.93;93.84
68257;DHT22;55069;51.568;4.656;2023-02-22T06:51:25;4.96;94.01
68257;DHT22;55069;51.568;4.656;2023-02-22T06:53:51;4.99;94.08
68257;DHT22;55069;51.568;4.656;2023-02-22T06:56:16;5.00;94.05
68257;DHT22;55069;51.568;4.656;2023-02-22T06:58:42;4.96;93.98
68257;DHT22;55069;51.568;4.656;2023-02-22T07:01:07;5.02;94.01
68257;DHT22;55069;51.568;4.656;2023-02-22T07:03:34;5.06;94.01
68257;DHT22;55069;51.568;4.656;2023-02-22T07:06:00;5.02;94.01
68257;DHT22;55069;51.568;4.656;2023-02-22T07:08:27;5.05;94.13
68257;DHT22;55069;51.568;4.656;2023-02-22T07:10:53;5.04;94.05
68257;DHT22;55069;51.568;4.656;2023-02-22T07:13:18;5.06;94.04
68257;DHT22;55069;51.568;4.656;2023-02-22T07:15:44;5.09;94.04
68257;DHT22;55069;51.568;4.656;2023-02-22T07:18:09;5.08;93.87
68257;DHT22;55069;51.568;4.656;2023-02-22T07:20:36;5.13;93.80
68257;DHT22;55069;51.568;4.656;2023-02-22T07:23:03;5.18;93.89
68257;DHT22;55069;51.568;4.656;2023-02-22T07:25:29;5.20;93.84
68257;DHT22;55069;51.568;4.656;2023-02-22T07:27:54;5.15;93.51
68257;DHT22;55069;51.568;4.656;2023-02-22T07:30:25;5.23;93.59
68257;DHT22;55069;51.568;4.656;2023-02-22T07:32:55;5.22;93.53
68257;DHT22;55069;51.568;4.656;2023-02-22T07:35:35;5.30;93.59
68257;DHT22;55069;51.568;4.656;2023-02-22T07:38:03;5.29;93.23
68257;DHT22;55069;51.568;4.656;2023-02-22T07:40:28;5.29;93.26
68257;DHT22;55069;51.568;4.656;2023-02-22T07:42:58;5.37;93.24
68257;DHT22;55069;51.568;4.656;2023-02-22T07:45:29;5.33;93.12
68257;DHT22;55069;51.568;4.656;2023-02-22T07:47:55;5.39;92.94
68257;DHT22;55069;51.568;4.656;2023-02-22T07:50:22;5.46;92.99
68257;DHT22;55069;51.568;4.656;2023-02-22T07:52:50;5.50;92.87
68257;DHT22;55069;51.568;4.656;2023-02-22T07:55:19;5.57;92.68
68257;DHT22;55069;51.568;4.656;2023-02-22T07:57:46;5.61;92.66
68257;DHT22;55069;51.568;4.656;2023-02-22T08:00:14;5.63;92.27
68257;DHT22;55069;51.568;4.656;2023-02-22T08:02:41;5.70;92.40
68257;DHT22;55069;51.568;4.656;2023-02-22T08:05:08;5.65;91.86
68257;DHT22;55069;51.568;4.656;2023-02-22T08:07:36;5.67;91.79
68257;DHT22;55069;51.568;4.656;2023-02-22T08:10:03;5.78;92.19
68257;DHT22;55069;51.568;4.656;2023-02-22T08:12:34;5.84;91.99
68257;DHT22;55069;51.568;4.656;2023-02-22T08:15:01;5.85;92.01
68257;DHT22;55069;51.568;4.656;2023-02-22T08:17:26;5.84;91.68
68257;DHT22;55069;51.568;4.656;2023-02-22T08:19:52;5.75;91.58
68257;DHT22;55069;51.568;4.656;2023-02-22T08:22:18;5.81;91.61
68257;DHT22;55069;51.568;4.656;2023-02-22T08:24:43;5.82;91.31
68257;DHT22;55069;51.568;4.656;2023-02-22T08:27:09;5.88;91.32
68257;DHT22;55069;51.568;4.656;2023-02-22T08:29:34;5.87;91.08
68257;DHT22;55069;51.568;4.656;2023-02-22T08:32:00;5.94;91.07
68257;DHT22;55069;51.568;4.656;2023-02-22T08:34:26;5.88;91.09
68257;DHT22;55069;51.568;4.656;2023-02-22T08:36:52;6.03;91.00
68257;DHT22;55069;51.568;4.656;2023-02-22T08:39:17;6.05;90.91
68257;DHT22;55069;51.568;4.656;2023-02-22T08:41:43;6.13;90.71
68257;DHT22;55069;51.568;4.656;2023-02-22T08:44:09;6.15;90.42
68257;DHT22;55069;51.568;4.656;2023-02-22T08:46:34;6.23;90.09
68257;DHT22;55069;51.568;4.656;2023-02-22T08:49:00;6.28;90.00
68257;DHT22;55069;51.568;4.656;2023-02-22T08:51:26;6.32;89.53
68257;DHT22;55069;51.568;4.656;2023-02-22T08:53:51;6.37;89.10
68257;DHT22;55069;51.568;4.656;2023-02-22T08:56:18;6.43;88.95
68257;DHT22;55069;51.568;4.656;2023-02-22T08:58:43;6.53;88.85
68257;DHT22;55069;51.568;4.656;2023-02-22T09:01:09;6.57;88.67
68257;DHT22;55069;51.568;4.656;2023-02-22T09:03:34;6.53;87.16
68257;DHT22;55069;51.568;4.656;2023-02-22T09:06:00;6.49;87.70
68257;DHT22;55069;51.568;4.656;2023-02-22T09:08:26;6.46;87.77
68257;DHT22;55069;51.568;4.656;2023-02-22T09:10:51;6.43;87.98
68257;DHT22;55069;51.568;4.656;2023-02-22T09:13:17;6.46;88.15
68257;DHT22;55069;51.568;4.656;2023-02-22T09:15:42;6.37;87.94
68257;DHT22;55069;51.568;4.656;2023-02-22T09:18:10;6.33;88.25
68257;DHT22;55069;51.568;4.656;2023-02-22T09:20:39;6.40;88.14
68257;DHT22;55069;51.568;4.656;2023-02-22T09:23:05;6.36;88.25
68257;DHT22;55069;51.568;4.656;2023-02-22T09:25:31;6.43;88.50
68257;DHT22;55069;51.568;4.656;2023-02-22T09:27:58;6.53;88.22
68257;DHT22;55069;51.568;4.656;2023-02-22T09:30:27;6.66;88.33
68257;DHT22;55069;51.568;4.656;2023-02-22T09:33:01;6.74;87.97
68257;DHT22;55069;51.568;4.656;2023-02-22T09:35:26;6.71;87.77
68257;DHT22;55069;51.568;4.656;2023-02-22T09:37:58;6.73;87.24
68257;DHT22;55069;51.568;4.656;2023-02-22T09:40:29;6.78;87.58
68257;DHT22;55069;51.568;4.656;2023-02-22T09:48:35;6.89;86.51
68257;DHT22;55069;51.568;4.656;2023-02-22T09:51:10;6.84;86.54
68257;DHT22;55069;51.568;4.656;2023-02-22T09:53:43;6.80;86.69
68257;DHT22;55069;51.568;4.656;2023-02-22T09:56:11;6.94;86.83
68257;DHT22;55069;51.568;4.656;2023-02-22T10:07:02;7.22;86.32
68257;DHT22;55069;51.568;4.656;2023-02-22T10:09:33;7.32;86.66
68257;DHT22;55069;51.568;4.656;2023-02-22T10:12:09;7.33;86.08
68257;DHT22;55069;51.568;4.656;2023-02-22T10:14:46;7.32;87.04
68257;DHT22;55069;51.568;4.656;2023-02-22T10:17:46;7.40;86.55
68257;DHT22;55069;51.568;4.656;2023-02-22T10:20:33;7.42;87.18
68257;DHT22;55069;51.568;4.656;2023-02-22T10:25:51;7.30;87.15
68257;DHT22;55069;51.568;4.656;2023-02-22T10:28:33;7.39;87.76
68257;DHT22;55069;51.568;4.656;2023-02-22T10:31:06;7.22;87.32
68257;DHT22;55069;51.568;4.656;2023-02-22T10:33:46;7.35;87.68
68257;DHT22;55069;51.568;4.656;2023-02-22T10:36:18;7.42;88.29
68257;DHT22;55069;51.568;4.656;2023-02-22T10:41:50;7.63;88.03
68257;DHT22;55069;51.568;4.656;2023-02-22T10:44:18;7.73;87.46
68257;DHT22;55069;51.568;4.656;2023-02-22T10:46:44;7.63;87.03
68257;DHT22;55069;51.568;4.656;2023-02-22T10:49:16;7.85;87.34
68257;DHT22;55069;51.568;4.656;2023-02-22T10:51:43;7.94;86.34
68257;DHT22;55069;51.568;4.656;2023-02-22T10:56:46;8.25;86.16
68257;DHT22;55069;51.568;4.656;2023-02-22T10:59:25;8.41;85.75
68257;DHT22;55069;51.568;4.656;2023-02-22T11:01:51;8.41;85.52
68257;DHT22;55069;51.568;4.656;2023-02-22T11:04:19;8.48;85.00
68257;DHT22;55069;51.568;4.656;2023-02-22T11:07:12;8.62;85.21
68257;DHT22;55069;51.568;4.656;2023-02-22T11:09:49;8.63;84.25
68257;DHT22;55069;51.568;4.656;2023-02-22T11:12:27;8.81;85.37
68257;DHT22;55069;51.568;4.656;2023-02-22T11:14:53;8.91;84.49
68257;DHT22;55069;51.568;4.656;2023-02-22T11:17:27;9.00;84.03
68257;DHT22;55069;51.568;4.656;2023-02-22T11:19:54;9.17;84.11
68257;DHT22;55069;51.568;4.656;2023-02-22T11:22:24;9.12;82.91
68257;DHT22;55069;51.568;4.656;2023-02-22T11:24:59;9.15;83.75
68257;DHT22;55069;51.568;4.656;2023-02-22T11:27:36;9.25;83.74
68257;DHT22;55069;51.568;4.656;2023-02-22T11:30:21;9.27;83.27
68257;DHT22;55069;51.568;4.656;2023-02-22T11:38:08;9.50;83.28
68257;DHT22;55069;51.568;4.656;2023-02-22T11:40:34;9.53;82.96
68257;DHT22;55069;51.568;4.656;2023-02-22T11:43:15;9.35;82.49
68257;DHT22;55069;51.568;4.656;2023-02-22T11:48:27;9.57;83.86
68257;DHT22;55069;51.568;4.656;2023-02-22T11:51:14;9.52;82.66
68257;DHT22;55069;51.568;4.656;2023-02-22T11:56:49;9.62;82.53
68257;DHT22;55069;51.568;4.656;2023-02-22T12:21:26;10.18;81.96
68257;DHT22;55069;51.568;4.656;2023-02-22T12:24:07;10.22;81.09
68257;DHT22;55069;51.568;4.656;2023-02-22T12:26:52;10.30;80.71
68257;DHT22;55069;51.568;4.656;2023-02-22T12:29:27;10.28;80.85
68257;DHT22;55069;51.568;4.656;2023-02-22T12:32:00;10.30;81.03
68257;DHT22;55069;51.568;4.656;2023-02-22T12:34:36;10.38;80.56
68257;DHT22;55069;51.568;4.656;2023-02-22T12:37:09;10.40;80.51
68257;DHT22;55069;51.568;4.656;2023-02-22T12:45:20;10.52;80.93
68257;DHT22;55069;51.568;4.656;2023-02-22T12:47:54;10.53;80.83
68257;DHT22;55069;51.568;4.656;2023-02-22T12:50:27;10.59;80.35
68257;DHT22;55069;51.568;4.656;2023-02-22T12:53:00;10.58;81.02
68257;DHT22;55069;51.568;4.656;2023-02-22T12:55:41;10.65;81.30
68257;DHT22;55069;51.568;4.656;2023-02-22T12:58:45;10.65;80.63
68257;DHT22;55069;51.568;4.656;2023-02-22T13:01:17;10.73;80.08
68257;DHT22;55069;51.568;4.656;2023-02-22T13:03:44;10.71;80.20
68257;DHT22;55069;51.568;4.656;2023-02-22T13:11:35;10.92;80.06
68257;DHT22;55069;51.568;4.656;2023-02-22T13:16:51;10.93;79.98
68257;DHT22;55069;51.568;4.656;2023-02-22T13:19:29;10.88;79.10
68257;DHT22;55069;51.568;4.656;2023-02-22T13:22:06;11.14;78.91
68257;DHT22;55069;51.568;4.656;2023-02-22T13:27:21;11.21;78.63
68257;DHT22;55069;51.568;4.656;2023-02-22T13:29:52;11.35;78.78
68257;DHT22;55069;51.568;4.656;2023-02-22T13:37:47;11.52;78.00
68257;DHT22;55069;51.568;4.656;2023-02-22T13:48:15;11.24;77.35
68257;DHT22;55069;51.568;4.656;2023-02-22T13:51:09;11.31;78.49
68257;DHT22;55069;51.568;4.656;2023-02-22T13:56:15;11.38;78.73
68257;DHT22;55069;51.568;4.656;2023-02-22T14:01:49;11.45;78.25
68257;DHT22;55069;51.568;4.656;2023-02-22T14:07:03;11.35;78.20
68257;DHT22;55069;51.568;4.656;2023-02-22T14:20:29;11.21;79.01
68257;DHT22;55069;51.568;4.656;2023-02-22T14:23:31;11.06;78.81
68257;DHT22;55069;51.568;4.656;2023-02-22T14:26:09;11.06;79.33
68257;DHT22;55069;51.568;4.656;2023-02-22T14:28:54;11.00;79.29
68257;DHT22;55069;51.568;4.656;2023-02-22T14:31:29;10.84;79.74
68257;DHT22;55069;51.568;4.656;2023-02-22T14:36:32;10.99;79.92
68257;DHT22;55069;51.568;4.656;2023-02-22T14:41:40;10.96;80.27
68257;DHT22;55069;51.568;4.656;2023-02-22T14:44:07;10.80;80.59
68257;DHT22;55069;51.568;4.656;2023-02-22T14:46:39;10.77;80.50
68257;DHT22;55069;51.568;4.656;2023-02-22T14:49:10;10.77;80.80
68257;DHT22;55069;51.568;4.656;2023-02-22T14:51:53;10.68;81.06
68257;DHT22;55069;51.568;4.656;2023-02-22T14:54:24;10.77;81.18
68257;DHT22;55069;51.568;4.656;2023-02-22T14:57:24;10.71;81.52
68257;DHT22;55069;51.568;4.656;2023-02-22T15:02:37;10.49;81.81
68257;DHT22;55069;51.568;4.656;2023-02-22T15:05:03;10.55;82.06
68257;DHT22;55069;51.568;4.656;2023-02-22T15:07:30;10.49;82.26
68257;DHT22;55069;51.568;4.656;2023-02-22T15:13:02;10.37;82.78
68257;DHT22;55069;51.568;4.656;2023-02-22T15:15:42;10.40;82.91
68257;DHT22;55069;51.568;4.656;2023-02-22T15:18:19;10.41;83.06
68257;DHT22;55069;51.568;4.656;2023-02-22T15:20:46;10.40;83.00
68257;DHT22;55069;51.568;4.656;2023-02-22T15:23:15;10.37;83.33
68257;DHT22;55069;51.568;4.656;2023-02-22T15:25:46;10.31;83.45
68257;DHT22;55069;51.568;4.656;2023-02-22T15:28:13;10.32;83.57
68257;DHT22;55069;51.568;4.656;2023-02-22T15:30:39;10.31;83.52
68257;DHT22;55069;51.568;4.656;2023-02-22T15:33:15;10.24;83.88
68257;DHT22;55069;51.568;4.656;2023-02-22T15:35:41;10.25;83.80
68257;DHT22;55069;51.568;4.656;2023-02-22T15:40:35;10.24;83.95
68257;DHT22;55069;51.568;4.656;2023-02-22T15:43:03;10.20;83.80
68257;DHT22;55069;51.568;4.656;2023-02-22T15:45:32;10.24;84.00
68257;DHT22;55069;51.568;4.656;2023-02-22T15:47:58;10.28;83.84
68257;DHT22;55069;51.568;4.656;2023-02-22T15:50:32;10.21;83.99
68257;DHT22;55069;51.568;4.656;2023-02-22T15:53:06;10.07;84.19
68257;DHT22;55069;51.568;4.656;2023-02-22T15:55:38;10.10;84.38
68257;DHT22;55069;51.568;4.656;2023-02-22T16:00:42;10.01;84.59
68257;DHT22;55069;51.568;4.656;2023-02-22T16:03:10;10.04;84.62
68257;DHT22;55069;51.568;4.656;2023-02-22T16:05:51;10.03;84.44
68257;DHT22;55069;51.568;4.656;2023-02-22T16:08:26;10.05;84.50
68257;DHT22;55069;51.568;4.656;2023-02-22T16:11:01;10.05;84.37
68257;DHT22;55069;51.568;4.656;2023-02-22T16:13:29;9.97;84.81
68257;DHT22;55069;51.568;4.656;2023-02-22T16:18:27;9.83;85.44
68257;DHT22;55069;51.568;4.656;2023-02-22T16:21:07;9.80;85.55
68257;DHT22;55069;51.568;4.656;2023-02-22T16:26:27;9.75;86.05
68257;DHT22;55069;51.568;4.656;2023-02-22T16:28:54;9.76;86.16
68257;DHT22;55069;51.568;4.656;2023-02-22T16:31:23;9.73;86.36
68257;DHT22;55069;51.568;4.656;2023-02-22T16:33:50;9.72;86.45
68257;DHT22;55069;51.568;4.656;2023-02-22T16:36:18;9.63;86.61
68257;DHT22;55069;51.568;4.656;2023-02-22T16:38:45;9.56;87.00
68257;DHT22;55069;51.568;4.656;2023-02-22T16:41:14;9.56;86.86
68257;DHT22;55069;51.568;4.656;2023-02-22T16:43:45;9.60;87.02
68257;DHT22;55069;51.568;4.656;2023-02-22T16:46:11;9.49;87.11
68257;DHT22;55069;51.568;4.656;2023-02-22T16:48:41;9.55;87.16
68257;DHT22;55069;51.568;4.656;2023-02-22T16:51:20;9.45;87.28
68257;DHT22;55069;51.568;4.656;2023-02-22T16:53:47;9.48;87.58
68257;DHT22;55069;51.568;4.656;2023-02-22T16:56:15;9.46;87.63
68257;DHT22;55069;51.568;4.656;2023-02-22T16:58:43;9.42;87.71
68257;DHT22;55069;51.568;4.656;2023-02-22T17:01:08;9.43;87.83
68257;DHT22;55069;51.568;4.656;2023-02-22T17:03:36;9.42;87.91
68257;DHT22;55069;51.568;4.656;2023-02-22T17:06:02;9.38;88.14
68257;DHT22;55069;51.568;4.656;2023-02-22T17:08:27;9.40;88.22
68257;DHT22;55069;51.568;4.656;2023-02-22T17:10:54;9.36;88.30
68257;DHT22;55069;51.568;4.656;2023-02-22T17:13:23;9.39;88.49
68257;DHT22;55069;51.568;4.656;2023-02-22T17:15:49;9.38;88.47
68257;DHT22;55069;51.568;4.656;2023-02-22T17:18:16;9.34;89.05
68257;DHT22;55069;51.568;4.656;2023-02-22T17:20:47;9.36;89.13
68257;DHT22;55069;51.568;4.656;2023-02-22T17:23:13;9.34;89.17
68257;DHT22;55069;51.568;4.656;2023-02-22T17:25:40;9.31;89.13
68257;DHT22;55069;51.568;4.656;2023-02-22T17:28:07;9.34;88.99
68257;DHT22;55069;51.568;4.656;2023-02-22T17:30:32;9.31;89.23
68257;DHT22;55069;51.568;4.656;2023-02-22T17:33:01;9.28;89.33
68257;DHT22;55069;51.568;4.656;2023-02-22T17:35:29;9.24;89.39
68257;DHT22;55069;51.568;4.656;2023-02-22T17:37:58;9.25;89.36
68257;DHT22;55069;51.568;4.656;2023-02-22T17:40:25;9.27;89.30
68257;DHT22;55069;51.568;4.656;2023-02-22T17:42:51;9.22;89.44
68257;DHT22;55069;51.568;4.656;2023-02-22T17:45:21;9.21;89.28
68257;DHT22;55069;51.568;4.656;2023-02-22T17:47:50;9.21;89.26
68257;DHT22;55069;51.568;4.656;2023-02-22T17:50:17;9.21;89.34
68257;DHT22;55069;51.568;4.656;2023-02-22T17:52:43;9.25;89.13
68257;DHT22;55069;51.568;4.656;2023-02-22T17:55:10;9.21;89.17
68257;DHT22;55069;51.568;4.656;2023-02-22T17:57:37;9.21;89.03
68257;DHT22;55069;51.568;4.656;2023-02-22T18:00:06;9.15;89.09
68257;DHT22;55069;51.568;4.656;2023-02-22T18:02:42;9.21;89.08
68257;DHT22;55069;51.568;4.656;2023-02-22T18:05:09;9.18;89.30
68257;DHT22;55069;51.568;4.656;2023-02-22T18:07:35;9.12;89.24
68257;DHT22;55069;51.568;4.656;2023-02-22T18:10:01;9.18;89.18
68257;DHT22;55069;51.568;4.656;2023-02-22T18:12:31;9.17;89.11
68257;DHT22;55069;51.568;4.656;2023-02-22T18:14:57;9.15;89.25
68257;DHT22;55069;51.568;4.656;2023-02-22T18:17:23;9.08;89.46
68257;DHT22;55069;51.568;4.656;2023-02-22T18:19:48;9.03;89.77
68257;DHT22;55069;51.568;4.656;2023-02-22T18:22:14;8.97;90.08
68257;DHT22;55069;51.568;4.656;2023-02-22T18:24:39;8.91;90.42
68257;DHT22;55069;51.568;4.656;2023-02-22T18:27:05;8.92;90.28
68257;DHT22;55069;51.568;4.656;2023-02-22T18:29:31;8.87;90.61
68257;DHT22;55069;51.568;4.656;2023-02-22T18:31:57;8.83;90.59
68257;DHT22;55069;51.568;4.656;2023-02-22T18:34:22;8.81;90.35
68257;DHT22;55069;51.568;4.656;2023-02-22T18:36:53;8.76;90.28
68257;DHT22;55069;51.568;4.656;2023-02-22T18:39:19;8.70;90.30